Time;durP1;ratioP1;P1;durP2;ratioP2;P2;SDS_P1;SDS_P2;PMS_P1;PMS_P2;Temp;Humidity;BMP_temperature;BMP_pressure;BME280_temperature;BME280_humidity;BME280_pressure;Samples;Min_cycle;Max_cycle;Signal;HPM_P1;HPM_P2
2021/11/05 00:06:52;;;;;;;2.03;1.67;;;22.00;54.00;;;;;;5047067;28;20494;-76
2021/11/05 00:09:21;;;;;;;1.63;1.53;;;21.90;54.00;;;;;;5029006;28;20431;-76
2021/11/05 00:11:48;;;;;;;2.50;1.90;;;21.90;54.00;;;;;;5031223;28;20414;-76
2021/11/05 00:14:14;;;;;;;2.03;1.80;;;21.90;54.00;;;;;;5031654;28;20476;-76
2021/11/05 00:16:40;;;;;;;3.13;1.90;;;21.90;54.00;;;;;;5048175;28;20210;-75
2021/11/05 00:19:06;;;;;;;2.87;2.10;;;21.90;54.00;;;;;;5051814;28;20187;-74
2021/11/05 00:21:32;;;;;;;2.40;1.73;;;21.90;54.60;;;;;;5049354;28;20179;-75
2021/11/05 00:23:58;;;;;;;2.03;1.70;;;21.90;54.00;;;;;;5030538;28;20245;-75
2021/11/05 00:26:24;;;;;;;2.63;2.10;;;21.90;54.00;;;;;;5031376;28;20441;-74
2021/11/05 00:28:49;;;;;;;2.33;1.93;;;21.90;54.00;;;;;;5031161;28;20430;-75
2021/11/05 00:31:15;;;;;;;2.53;1.90;;;21.90;54.10;;;;;;5031072;28;20430;-75
2021/11/05 00:33:41;;;;;;;2.07;1.60;;;21.90;54.00;;;;;;5025231;28;20192;-75
2021/11/05 00:36:13;;;;;;;2.53;2.17;;;21.90;54.00;;;;;;5031705;28;20188;-75
2021/11/05 00:38:41;;;;;;;2.23;1.80;;;21.90;54.00;;;;;;5030798;28;20229;-76
2021/11/05 00:41:07;;;;;;;2.23;1.50;;;21.90;54.10;;;;;;5032041;28;20850;-75
2021/11/05 00:43:33;;;;;;;2.50;1.50;;;21.90;54.10;;;;;;5014557;28;20487;-74
2021/11/05 00:45:59;;;;;;;1.83;1.63;;;21.90;54.10;;;;;;5027417;28;20439;-74
2021/11/05 00:48:25;;;;;;;2.13;1.87;;;21.90;54.10;;;;;;5043301;28;20507;-74
2021/11/05 00:50:50;;;;;;;1.73;1.60;;;21.90;54.10;;;;;;5025418;28;20172;-75
2021/11/05 00:53:16;;;;;;;2.30;1.77;;;21.90;54.10;;;;;;5040062;28;20641;-75
2021/11/05 00:55:42;;;;;;;1.93;1.60;;;21.90;54.10;;;;;;5043263;28;20180;-75
2021/11/05 00:58:08;;;;;;;2.70;1.63;;;21.90;54.10;;;;;;5026074;28;20595;-75
2021/11/05 01:00:34;;;;;;;2.43;1.97;;;21.90;54.20;;;;;;5032257;28;20176;-75
2021/11/05 01:03:00;;;;;;;1.87;1.60;;;21.90;54.20;;;;;;5032316;28;20445;-75
2021/11/05 01:05:26;;;;;;;2.03;1.67;;;21.90;54.20;;;;;;5031711;28;20184;-74
2021/11/05 01:07:52;;;;;;;2.00;1.80;;;21.90;54.20;;;;;;5048399;28;20448;-75
2021/11/05 01:10:18;;;;;;;3.60;1.77;;;21.80;54.10;;;;;;5032180;28;20172;-75
2021/11/05 01:12:46;;;;;;;1.73;1.40;;;21.80;54.20;;;;;;5031430;28;20634;-74
2021/11/05 01:15:13;;;;;;;2.33;1.70;;;21.80;54.10;;;;;;5032065;28;20171;-74
2021/11/05 01:17:40;;;;;;;2.10;1.50;;;21.80;54.10;;;;;;5026251;28;20503;-74
2021/11/05 01:20:12;;;;;;;1.73;1.60;;;21.80;54.10;;;;;;5031744;28;20418;-75
2021/11/05 01:22:38;;;;;;;2.97;1.77;;;21.80;54.10;;;;;;5049121;28;20437;-75
2021/11/05 01:25:04;;;;;;;3.13;1.60;;;21.80;54.20;;;;;;5049382;28;20912;-75
2021/11/05 01:27:29;;;;;;;1.40;1.30;;;21.80;54.10;;;;;;5049459;28;20462;-74
2021/11/05 01:29:58;;;;;;;1.90;1.70;;;21.80;54.20;;;;;;5049090;28;20414;-74
2021/11/05 01:32:25;;;;;;;1.70;1.57;;;21.80;54.10;;;;;;5032714;28;20194;-74
2021/11/05 01:34:53;;;;;;;1.70;1.47;;;21.80;54.10;;;;;;5030235;28;21080;-74
2021/11/05 01:37:19;;;;;;;2.23;1.57;;;21.80;54.20;;;;;;5031613;28;20450;-74
2021/11/05 01:39:45;;;;;;;2.73;1.57;;;21.80;54.20;;;;;;5029482;28;20503;-74
2021/11/05 01:42:11;;;;;;;2.27;1.80;;;21.80;54.20;;;;;;5029843;28;20441;-74
2021/11/05 01:44:36;;;;;;;1.90;1.67;;;21.80;54.20;;;;;;5045461;28;20182;-76
2021/11/05 01:47:03;;;;;;;2.37;1.70;;;21.80;54.20;;;;;;5034075;28;20187;-76
2021/11/05 01:49:29;;;;;;;1.93;1.60;;;21.80;54.20;;;;;;5032301;28;20460;-75
2021/11/05 01:51:56;;;;;;;1.93;1.40;;;21.80;54.20;;;;;;5032113;28;20441;-76
2021/11/05 01:54:23;;;;;;;2.00;1.57;;;21.80;54.20;;;;;;5050597;28;20494;-76
2021/11/05 01:56:50;;;;;;;2.30;1.70;;;21.80;54.30;;;;;;5030179;28;20501;-76
2021/11/05 01:59:28;;;;;;;2.60;1.80;;;21.80;54.30;;;;;;5031236;28;20423;-76
2021/11/05 02:01:56;;;;;;;2.03;1.83;;;21.80;54.30;;;;;;5037766;28;20796;-76
2021/11/05 02:04:22;;;;;;;2.20;1.83;;;21.80;54.30;;;;;;5054421;28;20432;-75
2021/11/05 02:06:50;;;;;;;2.13;1.50;;;21.80;54.30;;;;;;5032423;28;20426;-75
2021/11/05 02:09:19;;;;;;;1.93;1.47;;;21.80;54.30;;;;;;5031208;28;20455;-76
2021/11/05 02:11:46;;;;;;;1.90;1.37;;;21.80;54.30;;;;;;5049689;28;20449;-75
2021/11/05 02:14:19;;;;;;;2.03;1.70;;;21.70;54.20;;;;;;5032447;28;20440;-76
2021/11/05 02:16:48;;;;;;;2.20;1.60;;;21.70;54.30;;;;;;5035119;28;20476;-75
2021/11/05 02:19:16;;;;;;;2.00;1.80;;;21.70;54.30;;;;;;5030519;28;20435;-75
2021/11/05 02:21:44;;;;;;;1.73;1.50;;;21.70;54.80;;;;;;5032309;28;20430;-75
2021/11/05 02:24:11;;;;;;;1.90;1.40;;;21.70;54.30;;;;;;5031662;28;20569;-75
2021/11/05 02:26:38;;;;;;;1.90;1.33;;;21.70;54.30;;;;;;5032476;28;20485;-75
2021/11/05 02:29:04;;;;;;;2.03;1.70;;;21.70;54.30;;;;;;5032844;28;20944;-74
2021/11/05 02:31:31;;;;;;;2.30;1.67;;;21.70;54.30;;;;;;5034873;28;20431;-74
2021/11/05 02:33:57;;;;;;;1.33;1.17;;;21.70;54.30;;;;;;5044685;28;20422;-75
2021/11/05 02:36:23;;;;;;;1.70;1.27;;;21.70;54.30;;;;;;5049644;28;20501;-75
2021/11/05 02:38:51;;;;;;;2.27;1.50;;;21.70;54.30;;;;;;5027941;28;20411;-74
2021/11/05 02:41:16;;;;;;;2.10;1.50;;;21.70;54.30;;;;;;5047085;28;20673;-76
2021/11/05 02:47:24;;;;;;;2.13;1.67;;;21.70;54.30;;;;;;5050449;28;20183;-75
2021/11/05 02:49:51;;;;;;;1.83;1.47;;;21.70;54.40;;;;;;5031922;28;20419;-76
2021/11/05 02:52:17;;;;;;;2.50;1.83;;;21.70;54.40;;;;;;5029584;28;20441;-75
2021/11/05 02:54:43;;;;;;;1.90;1.70;;;21.70;54.40;;;;;;5028879;28;20459;-75
2021/11/05 02:57:09;;;;;;;3.20;1.73;;;21.70;54.40;;;;;;5046187;28;20207;-76
2021/11/05 02:59:36;;;;;;;1.40;1.20;;;21.70;54.40;;;;;;5033583;28;20194;-76
2021/11/05 03:02:02;;;;;;;1.47;1.20;;;21.70;54.40;;;;;;5035166;28;20195;-76
2021/11/05 03:04:29;;;;;;;1.90;1.37;;;21.70;54.40;;;;;;5031010;28;20740;-76
2021/11/05 03:07:04;;;;;;;2.13;1.67;;;21.70;54.40;;;;;;5030830;28;20433;-75
2021/11/05 03:09:39;;;;;;;2.13;1.70;;;21.70;54.40;;;;;;5031537;28;20483;-76
2021/11/05 03:12:05;;;;;;;1.90;1.70;;;21.70;54.40;;;;;;5031379;28;20467;-75
2021/11/05 03:14:31;;;;;;;1.87;1.63;;;21.70;54.40;;;;;;5031007;28;20441;-76
2021/11/05 03:16:58;;;;;;;2.97;1.63;;;21.70;54.40;;;;;;5031142;28;20493;-75
2021/11/05 03:19:24;;;;;;;2.17;1.90;;;21.70;54.40;;;;;;5048733;28;20190;-75
2021/11/05 03:21:51;;;;;;;2.33;1.50;;;21.60;54.40;;;;;;5048922;28;20422;-76
2021/11/05 03:24:17;;;;;;;1.30;1.20;;;21.60;54.40;;;;;;5030916;28;20187;-76
2021/11/05 03:26:43;;;;;;;1.87;1.43;;;21.70;54.40;;;;;;5027805;28;20468;-76
2021/11/05 03:29:09;;;;;;;1.70;1.50;;;21.70;54.40;;;;;;5027629;28;20447;-75
2021/11/05 03:31:35;;;;;;;1.90;1.57;;;21.70;54.40;;;;;;5048159;28;20429;-74
2021/11/05 03:34:02;;;;;;;1.53;1.30;;;21.70;54.40;;;;;;5047842;28;20425;-74
2021/11/05 03:36:29;;;;;;;1.77;1.30;;;21.70;54.40;;;;;;5030580;28;20457;-75
2021/11/05 03:38:55;;;;;;;1.83;1.33;;;21.60;54.40;;;;;;5030919;28;20838;-75
2021/11/05 03:41:21;;;;;;;1.67;1.40;;;21.60;54.40;;;;;;5048632;28;20486;-75
2021/11/05 03:43:49;;;;;;;2.37;1.50;;;21.60;54.40;;;;;;5035642;28;20179;-75
2021/11/05 03:46:15;;;;;;;1.83;1.40;;;21.60;54.40;;;;;;5068568;28;20456;-74
2021/11/05 03:48:41;;;;;;;1.43;1.10;;;21.60;54.40;;;;;;5051422;28;20421;-74
2021/11/05 03:51:08;;;;;;;1.80;1.20;;;21.60;54.40;;;;;;5050967;28;20167;-75
2021/11/05 03:53:35;;;;;;;1.30;1.10;;;21.60;54.40;;;;;;5068189;28;20413;-74
2021/11/05 03:56:02;;;;;;;1.60;1.27;;;21.60;54.40;;;;;;5067270;28;20421;-75
2021/11/05 03:58:27;;;;;;;1.80;1.23;;;21.60;54.40;;;;;;5068588;28;20486;-75
2021/11/05 04:04:16;;;;;;;2.27;1.47;;;21.60;54.40;;;;;;5068938;28;20162;-74
2021/11/05 04:06:42;;;;;;;1.40;1.30;;;21.60;54.40;;;;;;5052178;28;20421;-76
2021/11/05 04:09:08;;;;;;;1.63;1.30;;;21.60;54.40;;;;;;5054731;28;20437;-74
2021/11/05 04:11:34;;;;;;;1.50;1.20;;;21.60;54.40;;;;;;5073065;28;20761;-74
2021/11/05 04:14:00;;;;;;;2.90;1.70;;;21.60;54.40;;;;;;5055792;28;20424;-74
2021/11/05 04:16:26;;;;;;;2.10;1.60;;;21.60;54.40;;;;;;5054949;28;20649;-74
2021/11/05 04:18:53;;;;;;;1.33;1.20;;;21.60;54.40;;;;;;5071759;28;20175;-74
2021/11/05 04:21:18;;;;;;;1.50;1.30;;;21.60;54.40;;;;;;5072646;28;20182;-76
2021/11/05 04:23:44;;;;;;;1.53;1.43;;;21.60;54.40;;;;;;5054743;28;20495;-75
2021/11/05 04:26:10;;;;;;;1.93;1.60;;;21.60;54.40;;;;;;5072832;28;20171;-75
2021/11/05 04:28:36;;;;;;;1.50;1.23;;;21.60;54.40;;;;;;5053947;28;20167;-76
2021/11/05 04:31:02;;;;;;;1.57;1.23;;;21.60;54.40;;;;;;5071825;28;20168;-75
2021/11/05 04:33:32;;;;;;;1.97;1.60;;;21.60;54.40;;;;;;5071889;28;20424;-75
2021/11/05 04:36:00;;;;;;;2.00;1.47;;;21.60;54.40;;;;;;5054172;28;20528;-76
2021/11/05 04:38:26;;;;;;;2.03;1.50;;;21.60;54.40;;;;;;5070723;28;20513;-75
2021/11/05 04:40:53;;;;;;;1.40;1.13;;;21.60;54.40;;;;;;5054005;28;20406;-75
2021/11/05 04:43:19;;;;;;;1.27;1.13;;;21.60;54.40;;;;;;5054224;28;20414;-75
2021/11/05 04:45:45;;;;;;;1.90;1.30;;;21.60;54.40;;;;;;5054482;28;20414;-75
2021/11/05 04:48:11;;;;;;;1.83;1.40;;;21.60;54.40;;;;;;5054630;28;20183;-75
2021/11/05 04:50:37;;;;;;;1.70;1.40;;;21.60;54.40;;;;;;5071786;28;20167;-75
2021/11/05 04:53:04;;;;;;;2.03;1.60;;;21.60;54.40;;;;;;5054078;28;20412;-74
2021/11/05 04:55:30;;;;;;;1.97;1.40;;;21.60;54.40;;;;;;5070554;28;20428;-74
2021/11/05 04:58:33;;;;;;;1.93;1.50;;;21.60;54.40;;;;;;5053362;28;20461;-74
2021/11/05 05:00:59;;;;;;;2.10;1.40;;;21.60;54.40;;;;;;5053959;28;20585;-74
2021/11/05 05:06:47;;;;;;;1.60;1.20;;;21.60;54.40;;;;;;5060261;28;20233;-75
2021/11/05 05:09:14;;;;;;;1.53;1.40;;;21.50;54.50;;;;;;5033574;28;20808;-75
2021/11/05 05:11:45;;;;;;;2.17;1.60;;;21.50;54.50;;;;;;5051235;28;20486;-75
2021/11/05 05:14:13;;;;;;;1.60;1.40;;;21.50;54.50;;;;;;5051529;28;20446;-75
2021/11/05 05:16:42;;;;;;;2.70;1.40;;;21.50;54.40;;;;;;5050974;28;20454;-74
2021/11/05 05:19:08;;;;;;;2.40;1.30;;;21.50;54.50;;;;;;5030088;28;20494;-74
2021/11/05 05:21:34;;;;;;;1.53;1.00;;;21.50;54.40;;;;;;5047714;28;20487;-74
2021/11/05 05:24:00;;;;;;;1.60;1.23;;;21.50;54.40;;;;;;5050502;28;20422;-74
2021/11/05 05:26:26;;;;;;;1.30;1.10;;;21.50;54.40;;;;;;5032960;28;20234;-74
2021/11/05 05:29:10;;;;;;;1.80;1.23;;;21.50;54.40;;;;;;5050009;28;20190;-75
2021/11/05 05:31:36;;;;;;;1.60;1.20;;;21.50;54.40;;;;;;5032746;28;20207;-74
2021/11/05 05:34:13;;;;;;;1.60;1.30;;;21.50;54.50;;;;;;5029120;28;20949;-75
2021/11/05 05:36:39;;;;;;;1.40;1.30;;;21.50;54.50;;;;;;5043535;28;20266;-74
2021/11/05 05:39:05;;;;;;;1.63;1.27;;;21.50;54.50;;;;;;5030235;28;20423;-74
2021/11/05 05:41:31;;;;;;;1.90;1.47;;;21.50;54.50;;;;;;5028268;28;20430;-75
2021/11/05 05:43:57;;;;;;;1.47;1.27;;;21.50;54.50;;;;;;5050185;28;20414;-75
2021/11/05 05:46:23;;;;;;;1.30;0.90;;;21.50;54.50;;;;;;5028898;28;20188;-74
2021/11/05 05:48:49;;;;;;;1.23;1.00;;;21.50;54.40;;;;;;5013242;28;20246;-74
2021/11/05 05:51:14;;;;;;;1.57;1.00;;;21.50;54.40;;;;;;5030980;28;20180;-74
2021/11/05 05:53:40;;;;;;;1.33;1.20;;;21.50;54.40;;;;;;5031081;28;20187;-74
2021/11/05 05:56:06;;;;;;;1.63;1.20;;;21.50;54.40;;;;;;5013154;28;20503;-74
2021/11/05 05:58:32;;;;;;;1.47;1.20;;;21.50;54.40;;;;;;5030512;28;20183;-74
2021/11/05 06:00:58;;;;;;;1.60;1.20;;;21.50;54.40;;;;;;5030500;28;20732;-74
2021/11/05 06:03:25;;;;;;;1.40;1.30;;;21.50;54.30;;;;;;5030141;28;20404;-74
2021/11/05 06:05:51;;;;;;;1.40;1.20;;;21.60;54.40;;;;;;5030979;28;20432;-75
2021/11/05 06:08:17;;;;;;;1.70;1.30;;;21.60;54.40;;;;;;5029957;28;20435;-76
2021/11/05 06:10:43;;;;;;;2.00;1.43;;;21.60;54.30;;;;;;5030141;28;20444;-75
2021/11/05 06:13:09;;;;;;;1.43;1.10;;;21.60;54.30;;;;;;5013176;28;20184;-75
2021/11/05 06:15:34;;;;;;;1.33;1.23;;;21.60;54.20;;;;;;5013174;28;20191;-75
2021/11/05 06:18:00;;;;;;;1.30;1.10;;;21.60;54.20;;;;;;5030169;28;20459;-75
2021/11/05 06:20:26;;;;;;;1.20;1.10;;;21.60;54.20;;;;;;5013298;28;20204;-75
2021/11/05 06:22:54;;;;;;;1.27;1.00;;;21.60;54.10;;;;;;5012215;28;20204;-74
2021/11/05 06:25:19;;;;;;;1.20;1.00;;;21.70;54.20;;;;;;5029761;28;20411;-74
2021/11/05 06:27:45;;;;;;;1.40;1.13;;;21.70;54.20;;;;;;5030169;28;20789;-77
2021/11/05 06:30:52;;;;;;;1.43;1.20;;;21.70;54.20;;;;;;5011690;28;20176;-75
2021/11/05 06:33:21;;;;;;;3.40;1.30;;;21.70;54.10;;;;;;5029784;28;20442;-75
2021/11/05 06:35:47;;;;;;;1.53;1.17;;;21.70;54.10;;;;;;5029903;28;20490;-75
2021/11/05 06:38:13;;;;;;;1.40;1.17;;;21.70;54.10;;;;;;5029830;28;20867;-75
2021/11/05 06:40:42;;;;;;;1.10;0.90;;;21.70;54.10;;;;;;5012022;28;20914;-77
2021/11/05 06:43:09;;;;;;;1.37;1.27;;;21.70;54.10;;;;;;5010873;28;20511;-76
2021/11/05 06:45:35;;;;;;;1.53;1.40;;;21.70;54.10;;;;;;5028323;28;20415;-75
2021/11/05 06:48:19;;;;;;;1.50;1.30;;;21.70;54.10;;;;;;5028605;28;20499;-75
2021/11/05 06:50:47;;;;;;;1.20;1.10;;;21.70;54.00;;;;;;5029216;28;20168;-75
2021/11/05 06:53:13;;;;;;;1.60;1.27;;;21.70;54.00;;;;;;5010433;28;20427;-75
2021/11/05 06:55:39;;;;;;;1.60;1.30;;;21.70;54.10;;;;;;5011493;28;20925;-74
2021/11/05 06:58:06;;;;;;;2.20;1.50;;;21.70;54.00;;;;;;5028327;28;20287;-77
2021/11/05 07:00:32;;;;;;;1.77;1.30;;;21.70;54.00;;;;;;5010848;28;20411;-76
2021/11/05 07:03:02;;;;;;;2.40;1.60;;;21.70;54.00;;;;;;5010815;28;20506;-76
2021/11/05 07:05:28;;;;;;;3.27;1.77;;;21.70;54.00;;;;;;5028092;28;20415;-75
2021/11/05 07:07:53;;;;;;;1.23;1.00;;;21.70;54.00;;;;;;5018070;28;20454;-76
2021/11/05 07:10:19;;;;;;;1.63;1.20;;;21.70;54.00;;;;;;5025055;28;20421;-75
2021/11/05 07:16:08;;;;;;;1.47;1.17;;;21.80;54.00;;;;;;5048448;28;20163;-76
2021/11/05 07:22:02;;;;;;;1.63;1.20;;;21.70;54.00;;;;;;5047995;28;20713;-75
2021/11/05 07:24:33;;;;;;;1.97;1.40;;;21.70;54.10;;;;;;5054245;28;20401;-81
2021/11/05 07:26:59;;;;;;;1.23;1.00;;;21.70;54.10;;;;;;5049893;28;20399;-75
2021/11/05 07:29:26;;;;;;;2.00;1.27;;;21.70;54.10;;;;;;5047216;28;20411;-76
2021/11/05 07:31:58;;;;;;;2.37;1.17;;;21.70;54.10;;;;;;5047567;28;20414;-75
2021/11/05 07:34:29;;;;;;;2.30;1.43;;;21.70;54.00;;;;;;5030202;28;20419;-76
2021/11/05 07:36:56;;;;;;;1.57;1.40;;;21.80;54.10;;;;;;5047241;28;20446;-76
2021/11/05 07:39:22;;;;;;;1.47;1.17;;;21.80;54.10;;;;;;5030968;28;20417;-76
2021/11/05 07:41:47;;;;;;;1.30;1.10;;;21.80;54.00;;;;;;5030051;28;20446;-75
2021/11/05 07:44:15;;;;;;;1.67;1.23;;;21.80;54.00;;;;;;5051530;28;20180;-80
2021/11/05 07:46:42;;;;;;;2.03;1.20;;;21.80;54.00;;;;;;5052172;28;20198;-76
2021/11/05 07:49:08;;;;;;;1.40;1.00;;;21.80;54.00;;;;;;5034369;28;20482;-75
2021/11/05 07:51:33;;;;;;;2.23;1.20;;;21.80;54.10;;;;;;5051843;28;20409;-75
2021/11/05 07:53:59;;;;;;;5.00;1.50;;;21.80;54.00;;;;;;5053333;28;20163;-76
2021/11/05 07:56:25;;;;;;;2.53;1.30;;;21.80;54.00;;;;;;5053597;28;20167;-76
2021/11/05 07:58:51;;;;;;;2.07;1.20;;;21.80;54.00;;;;;;5035124;28;20186;-76
2021/11/05 08:01:17;;;;;;;8.20;1.57;;;21.80;54.00;;;;;;5053176;28;20414;-75
2021/11/05 08:03:44;;;;;;;4.00;1.80;;;21.80;54.00;;;;;;5036119;28;20168;-76
2021/11/05 08:06:10;;;;;;;1.90;1.27;;;21.80;54.00;;;;;;5034727;28;20186;-76
2021/11/05 08:08:36;;;;;;;1.73;1.17;;;21.80;54.00;;;;;;5052102;28;20465;-75
2021/11/05 08:11:02;;;;;;;4.13;1.50;;;21.80;54.00;;;;;;5053631;28;20411;-76
2021/11/05 08:13:28;;;;;;;2.43;1.83;;;21.80;54.00;;;;;;5034474;28;20206;-76
2021/11/05 08:15:54;;;;;;;8.00;2.50;;;21.80;54.00;;;;;;5035216;28;20830;-76
2021/11/05 08:18:26;;;;;;;3.00;1.33;;;21.80;54.00;;;;;;5051851;28;20477;-76
2021/11/05 08:20:51;;;;;;;4.20;1.57;;;21.80;54.00;;;;;;5051117;28;20180;-76
2021/11/05 08:23:17;;;;;;;3.33;1.60;;;21.80;54.00;;;;;;5034485;28;20437;-76
2021/11/05 08:25:47;;;;;;;2.20;1.37;;;21.80;54.00;;;;;;5052715;28;20152;-76
2021/11/05 08:28:17;;;;;;;3.30;1.40;;;21.80;54.00;;;;;;5035410;28;20233;-77
2021/11/05 08:30:43;;;;;;;2.70;1.40;;;21.80;54.00;;;;;;5034421;28;20410;-76
2021/11/05 08:33:09;;;;;;;5.10;1.67;;;21.80;54.00;;;;;;5034087;28;20476;-77
2021/11/05 08:35:38;;;;;;;3.00;1.67;;;21.80;54.00;;;;;;5034571;28;20422;-77
2021/11/05 08:38:07;;;;;;;4.23;1.90;;;21.80;54.00;;;;;;5033960;28;20275;-76
2021/11/05 08:40:34;;;;;;;3.60;2.13;;;21.80;54.00;;;;;;5034793;28;20540;-77
2021/11/05 08:43:00;;;;;;;9.00;1.70;;;21.80;54.00;;;;;;5052161;28;20411;-76
2021/11/05 08:45:26;;;;;;;2.80;1.77;;;21.80;54.00;;;;;;5051895;28;20425;-77
2021/11/05 08:47:52;;;;;;;4.47;1.93;;;21.80;54.00;;;;;;5051891;28;20194;-77
2021/11/05 08:50:21;;;;;;;7.43;1.90;;;21.80;54.00;;;;;;5051679;28;20198;-77
2021/11/05 08:52:47;;;;;;;3.57;1.87;;;21.80;54.00;;;;;;5033895;28;20453;-77
2021/11/05 08:55:14;;;;;;;3.03;1.40;;;21.80;54.00;;;;;;5050680;28;20441;-77
2021/11/05 08:57:40;;;;;;;4.10;1.40;;;21.80;54.00;;;;;;5033982;28;20242;-78
2021/11/05 09:03:29;;;;;;;5.13;1.77;;;21.80;54.00;;;;;;5050784;28;20171;-74
2021/11/05 09:05:55;;;;;;;3.00;1.80;;;21.80;54.10;;;;;;5050533;28;20430;-76
2021/11/05 09:08:20;;;;;;;4.20;1.47;;;21.80;54.10;;;;;;5050847;28;20426;-76
2021/11/05 09:10:46;;;;;;;3.17;1.50;;;21.80;54.10;;;;;;5033249;28;20184;-79
2021/11/05 09:13:12;;;;;;;3.53;1.67;;;21.80;54.00;;;;;;5051312;28;20180;-79
2021/11/05 09:15:38;;;;;;;3.07;1.80;;;21.80;54.00;;;;;;5032691;28;20191;-79
2021/11/05 09:18:08;;;;;;;3.60;1.60;;;21.80;54.00;;;;;;5039914;28;20618;-79
2021/11/05 09:20:37;;;;;;;4.87;1.80;;;21.80;54.00;;;;;;5050723;28;20438;-79
2021/11/05 09:23:03;;;;;;;4.23;1.47;;;21.80;54.10;;;;;;5049205;28;20454;-78
2021/11/05 09:25:29;;;;;;;4.63;1.83;;;21.80;54.00;;;;;;5043451;28;20411;-78
2021/11/05 09:27:56;;;;;;;3.90;1.40;;;21.80;54.10;;;;;;5051728;28;20589;-80
2021/11/05 09:30:23;;;;;;;6.63;1.70;;;21.80;54.00;;;;;;5035741;28;20505;-80
2021/11/05 09:32:52;;;;;;;5.30;1.93;;;21.80;54.00;;;;;;5052239;28;20429;-80
2021/11/05 09:35:23;;;;;;;2.73;2.10;;;21.80;54.00;;;;;;5050705;28;20415;-80
2021/11/05 09:37:51;;;;;;;2.20;1.43;;;21.80;54.00;;;;;;5050754;28;20516;-79
2021/11/05 09:40:23;;;;;;;3.60;1.50;;;21.80;54.00;;;;;;5035006;28;20422;-80
2021/11/05 09:42:52;;;;;;;4.13;1.40;;;21.80;54.00;;;;;;5031735;28;20416;-79
2021/11/05 09:45:18;;;;;;;5.20;1.50;;;21.80;54.00;;;;;;5032974;28;20414;-79
2021/11/05 09:47:44;;;;;;;2.20;1.57;;;21.80;54.00;;;;;;5050039;28;20449;-79
2021/11/05 09:50:13;;;;;;;2.63;1.50;;;21.80;54.00;;;;;;5031959;28;20486;-79
2021/11/05 09:56:05;;;;;;;3.50;1.50;;;21.90;54.10;;;;;;5022712;28;20416;-80
2021/11/05 09:58:31;;;;;;;3.77;1.60;;;21.80;54.10;;;;;;5025939;28;20477;-80
2021/11/05 10:01:02;;;;;;;2.90;1.70;;;21.80;54.10;;;;;;5049010;28;21096;-80
2021/11/05 10:03:32;;;;;;;6.33;2.00;;;21.80;54.10;;;;;;5050265;28;20411;-80
2021/11/05 10:05:58;;;;;;;3.40;1.63;;;21.80;54.10;;;;;;5032784;28;20419;-80
2021/11/05 10:08:35;;;;;;;3.93;1.30;;;21.80;54.10;;;;;;5029033;28;20416;-79
2021/11/05 10:11:45;;;;;;;4.63;1.60;;;21.80;54.10;;;;;;5014401;28;20406;-79
2021/11/05 10:14:23;;;;;;;2.43;1.67;;;21.80;54.70;;;;;;5050870;28;20415;-79
2021/11/05 10:17:08;;;;;;;3.73;1.20;;;21.80;54.20;;;;;;5049408;28;20540;-79
2021/11/05 10:20:03;;;;;;;3.73;1.93;;;21.80;54.20;;;;;;5029547;28;20414;-80
2021/11/05 10:22:52;;;;;;;2.00;1.47;;;21.80;54.20;;;;;;5048778;28;20437;-80
2021/11/05 10:25:29;;;;;;;4.07;1.70;;;21.80;54.20;;;;;;5033236;28;20410;-79
2021/11/05 10:28:10;;;;;;;3.00;1.40;;;21.80;54.20;;;;;;5043679;28;20438;-79
2021/11/05 10:30:44;;;;;;;4.37;2.33;;;21.80;54.20;;;;;;5041289;28;20435;-78
2021/11/05 10:33:22;;;;;;;4.37;1.90;;;21.80;54.10;;;;;;5050565;28;20993;-79
2021/11/05 10:35:54;;;;;;;3.10;1.70;;;21.80;54.10;;;;;;5051016;28;20417;-79
2021/11/05 10:38:27;;;;;;;3.40;2.10;;;21.80;54.10;;;;;;5050573;28;20478;-80
2021/11/05 10:43:53;;;;;;;2.60;1.40;;;21.80;54.10;;;;;;5055997;28;20459;-79
2021/11/05 10:53:48;;;;;;;;;;;;;;;;;;;;;
2021/11/05 10:56:31;;;;;;;3.30;1.50;;;21.70;54.10;;;;;;5056124;28;20458;-78
2021/11/05 10:59:24;;;;;;;6.57;2.00;;;21.70;54.20;;;;;;5055204;28;20386;-79
2021/11/05 11:01:54;;;;;;;2.50;1.70;;;21.70;54.20;;;;;;5054104;28;20387;-78
2021/11/05 11:04:29;;;;;;;4.77;2.80;;;21.70;54.20;;;;;;5055165;28;20410;-80
2021/11/05 11:07:00;;;;;;;2.90;2.63;;;21.70;54.10;;;;;;5052818;28;20418;-78
2021/11/05 11:09:37;;;;;;;5.00;3.37;;;21.70;54.00;;;;;;5054859;28;20434;-77
2021/11/05 11:12:04;;;;;;;5.43;4.20;;;21.70;53.80;;;;;;5041667;28;20445;-77
2021/11/05 11:14:41;;;;;;;4.83;4.20;;;21.70;53.80;;;;;;5054302;28;20446;-78
2021/11/05 11:17:10;;;;;;;4.30;3.90;;;21.70;53.60;;;;;;5022555;28;20450;-78
2021/11/05 11:19:48;;;;;;;3.73;3.13;;;21.70;53.50;;;;;;5058617;28;20485;-77
2021/11/05 11:22:15;;;;;;;4.47;4.03;;;21.70;53.50;;;;;;5058781;28;20424;-76
2021/11/05 11:24:44;;;;;;;5.10;4.50;;;21.70;53.30;;;;;;5052228;28;20501;-78
2021/11/05 11:27:11;;;;;;;5.47;3.93;;;21.70;53.20;;;;;;5056862;28;20437;-81
2021/11/05 11:29:37;;;;;;;5.30;3.43;;;21.70;53.20;;;;;;5034388;28;20491;-81
2021/11/05 11:32:04;;;;;;;4.00;2.80;;;21.70;53.20;;;;;;5054670;28;20425;-81
2021/11/05 11:34:30;;;;;;;3.20;2.90;;;21.70;53.30;;;;;;5038001;28;20187;-81
2021/11/05 11:36:59;;;;;;;4.03;2.57;;;21.70;53.30;;;;;;5037094;28;20462;-80
2021/11/05 11:39:29;;;;;;;5.20;2.10;;;21.70;53.30;;;;;;5053902;28;20414;-81
2021/11/05 11:42:03;;;;;;;3.87;2.37;;;21.80;53.30;;;;;;5029576;28;20454;-81
2021/11/05 11:44:34;;;;;;;2.20;2.00;;;21.80;53.30;;;;;;5054025;28;20468;-82
2021/11/05 11:47:10;;;;;;;3.33;3.03;;;21.80;53.30;;;;;;5035353;28;20454;-81
2021/11/05 11:49:39;;;;;;;2.13;1.80;;;21.80;53.40;;;;;;5017913;28;20769;-79
2021/11/05 11:52:28;;;;;;;2.93;2.50;;;21.80;53.40;;;;;;5026861;28;20442;-79
2021/11/05 11:55:13;;;;;;;6.23;2.60;;;21.80;53.40;;;;;;5032267;28;20461;-79
2021/11/05 11:57:43;;;;;;;2.87;2.30;;;21.80;53.40;;;;;;5030060;28;20458;-79
2021/11/05 12:00:20;;;;;;;2.30;1.77;;;21.80;53.40;;;;;;5044096;28;20406;-80
2021/11/05 12:03:01;;;;;;;3.60;2.10;;;21.80;53.30;;;;;;5039654;28;20421;-79
2021/11/05 12:05:37;;;;;;;3.17;2.20;;;21.80;53.40;;;;;;5057031;28;20929;-78
2021/11/05 12:08:35;;;;;;;3.00;2.67;;;21.80;53.40;;;;;;5038925;28;20438;-78
2021/11/05 12:11:10;;;;;;;3.40;2.80;;;21.80;53.30;;;;;;5044376;28;20494;-78
2021/11/05 12:13:36;;;;;;;3.77;3.00;;;21.80;53.40;;;;;;5036464;28;20443;-78
2021/11/05 12:16:25;;;;;;;3.50;2.90;;;21.80;53.40;;;;;;5037677;28;20938;-77
2021/11/05 12:19:03;;;;;;;3.23;2.63;;;21.80;53.30;;;;;;5057314;28;20248;-78
2021/11/05 12:21:34;;;;;;;3.20;2.70;;;21.80;53.30;;;;;;5057549;28;20421;-78
2021/11/05 12:24:16;;;;;;;4.33;2.70;;;21.80;53.30;;;;;;5036048;28;20414;-77
2021/11/05 12:26:58;;;;;;;3.40;2.63;;;21.80;53.30;;;;;;5029975;28;20411;-77
2021/11/05 12:29:33;;;;;;;2.83;2.47;;;21.80;53.30;;;;;;5044291;28;20426;-76
2021/11/05 12:32:17;;;;;;;4.17;2.27;;;21.80;53.30;;;;;;5048705;28;20406;-76
2021/11/05 12:34:53;;;;;;;3.03;2.73;;;21.80;53.30;;;;;;5047948;28;20418;-78
2021/11/05 12:37:44;;;;;;;2.90;2.23;;;21.80;53.30;;;;;;5024101;28;20462;-76
2021/11/05 12:40:32;;;;;;;3.93;2.53;;;21.80;53.40;;;;;;5033006;28;20429;-76
2021/11/05 12:43:03;;;;;;;2.47;2.00;;;21.80;53.30;;;;;;5031222;28;20485;-78
2021/11/05 12:46:07;;;;;;;3.20;2.50;;;21.80;53.40;;;;;;5032100;28;20417;-77
2021/11/05 12:48:39;;;;;;;3.60;2.77;;;21.80;53.30;;;;;;5044386;28;20422;-77
2021/11/05 12:51:07;;;;;;;3.17;2.40;;;21.80;53.40;;;;;;5030470;28;20479;-77
2021/11/05 12:53:33;;;;;;;2.50;1.83;;;21.80;53.40;;;;;;5048876;28;20486;-77
2021/11/05 12:55:59;;;;;;;1.77;1.67;;;21.80;53.40;;;;;;5047509;28;20445;-77
2021/11/05 12:58:30;;;;;;;2.70;2.30;;;21.80;53.40;;;;;;5027624;28;20455;-77
2021/11/05 13:00:57;;;;;;;1.80;1.70;;;21.80;53.40;;;;;;5028226;28;20203;-79
2021/11/05 13:03:23;;;;;;;2.20;2.00;;;21.80;53.40;;;;;;5056631;28;20413;-79
2021/11/05 13:05:55;;;;;;;2.50;2.30;;;21.80;53.40;;;;;;5039352;28;20427;-78
2021/11/05 13:08:23;;;;;;;2.17;1.90;;;21.90;53.50;;;;;;5023283;28;20498;-78
2021/11/05 13:10:49;;;;;;;2.27;1.80;;;21.80;53.40;;;;;;5056243;28;20414;-79
2021/11/05 13:13:15;;;;;;;5.90;2.10;;;21.90;53.50;;;;;;5022227;28;20434;-78
2021/11/05 13:15:49;;;;;;;1.87;1.73;;;21.90;53.50;;;;;;5038718;28;20430;-79
2021/11/05 13:18:17;;;;;;;1.77;1.53;;;21.90;53.50;;;;;;5038223;28;20470;-77
2021/11/05 13:20:45;;;;;;;2.23;2.03;;;21.90;53.50;;;;;;5056113;28;20437;-78
2021/11/05 13:23:12;;;;;;;1.97;1.77;;;21.90;53.50;;;;;;5041483;28;20418;-77
2021/11/05 13:25:49;;;;;;;2.90;2.43;;;21.90;53.50;;;;;;5035884;28;20438;-78
2021/11/05 13:28:22;;;;;;;2.10;1.90;;;21.90;53.50;;;;;;5037844;28;20422;-78
2021/11/05 13:30:52;;;;;;;3.10;2.20;;;21.90;53.50;;;;;;5038789;28;20449;-78
2021/11/05 13:33:19;;;;;;;3.23;2.30;;;21.90;53.50;;;;;;5038198;28;20437;-79
2021/11/05 13:35:50;;;;;;;3.83;2.20;;;21.90;53.50;;;;;;5038423;28;20430;-78
2021/11/05 13:38:20;;;;;;;3.93;2.90;;;21.90;53.50;;;;;;5054712;28;20529;-77